sensor_id;sensor_type;location;lat;lon;timestamp;P1;durP1;ratioP1;P2;durP2;ratioP2
9330;SDS011;4704;50.470;12.072;2023-08-06T00:01:29;4.32;;;3.92;;
9330;SDS011;4704;50.470;12.072;2023-08-06T00:03:56;4.03;;;3.72;;
9330;SDS011;4704;50.470;12.072;2023-08-06T00:06:25;4.40;;;4.10;;
9330;SDS011;4704;50.470;12.072;2023-08-06T00:08:53;4.40;;;4.10;;
9330;SDS011;4704;50.470;12.072;2023-08-06T00:11:21;4.38;;;3.97;;
9330;SDS011;4704;50.470;12.072;2023-08-06T00:13:48;4.90;;;4.32;;
9330;SDS011;4704;50.470;12.072;2023-08-06T00:16:17;4.70;;;4.30;;
9330;SDS011;4704;50.470;12.072;2023-08-06T00:18:45;4.68;;;4.00;;
9330;SDS011;4704;50.470;12.072;2023-08-06T00:21:13;4.30;;;4.00;;
9330;SDS011;4704;50.470;12.072;2023-08-06T00:23:40;4.30;;;3.90;;
9330;SDS011;4704;50.470;12.072;2023-08-06T00:26:08;4.22;;;3.83;;
9330;SDS011;4704;50.470;12.072;2023-08-06T00:28:35;4.25;;;3.90;;
9330;SDS011;4704;50.470;12.072;2023-08-06T00:31:03;4.75;;;4.32;;
9330;SDS011;4704;50.470;12.072;2023-08-06T00:33:32;5.50;;;4.00;;
9330;SDS011;4704;50.470;12.072;2023-08-06T00:36:00;4.55;;;3.95;;
9330;SDS011;4704;50.470;12.072;2023-08-06T00:38:28;4.25;;;3.90;;
9330;SDS011;4704;50.470;12.072;2023-08-06T00:40:56;3.97;;;3.67;;
9330;SDS011;4704;50.470;12.072;2023-08-06T00:43:23;4.00;;;3.70;;
9330;SDS011;4704;50.470;12.072;2023-08-06T00:45:51;4.07;;;3.75;;
9330;SDS011;4704;50.470;12.072;2023-08-06T00:48:19;4.30;;;3.75;;
9330;SDS011;4704;50.470;12.072;2023-08-06T00:50:48;4.47;;;4.07;;
9330;SDS011;4704;50.470;12.072;2023-08-06T00:53:16;4.07;;;3.78;;
9330;SDS011;4704;50.470;12.072;2023-08-06T00:55:44;4.10;;;3.67;;
9330;SDS011;4704;50.470;12.072;2023-08-06T00:58:12;4.00;;;3.70;;
9330;SDS011;4704;50.470;12.072;2023-08-06T01:00:40;4.22;;;3.42;;
9330;SDS011;4704;50.470;12.072;2023-08-06T01:03:07;3.83;;;3.53;;
9330;SDS011;4704;50.470;12.072;2023-08-06T01:05:35;3.70;;;3.50;;
9330;SDS011;4704;50.470;12.072;2023-08-06T01:08:08;3.70;;;3.40;;
9330;SDS011;4704;50.470;12.072;2023-08-06T01:10:40;3.83;;;3.53;;
9330;SDS011;4704;50.470;12.072;2023-08-06T01:13:13;3.88;;;3.63;;
9330;SDS011;4704;50.470;12.072;2023-08-06T01:15:46;4.00;;;3.65;;
9330;SDS011;4704;50.470;12.072;2023-08-06T01:18:13;4.45;;;3.63;;
9330;SDS011;4704;50.470;12.072;2023-08-06T01:20:42;3.92;;;3.63;;
9330;SDS011;4704;50.470;12.072;2023-08-06T01:23:10;4.20;;;3.80;;
9330;SDS011;4704;50.470;12.072;2023-08-06T01:25:40;3.88;;;3.53;;
9330;SDS011;4704;50.470;12.072;2023-08-06T01:28:11;3.92;;;3.63;;
9330;SDS011;4704;50.470;12.072;2023-08-06T01:30:43;3.83;;;3.30;;
9330;SDS011;4704;50.470;12.072;2023-08-06T01:33:13;3.63;;;3.33;;
9330;SDS011;4704;50.470;12.072;2023-08-06T01:35:43;3.83;;;3.53;;
9330;SDS011;4704;50.470;12.072;2023-08-06T01:38:11;3.45;;;3.20;;
9330;SDS011;4704;50.470;12.072;2023-08-06T01:40:39;3.88;;;3.58;;
9330;SDS011;4704;50.470;12.072;2023-08-06T01:43:07;3.58;;;3.28;;
9330;SDS011;4704;50.470;12.072;2023-08-06T01:45:34;3.72;;;3.42;;
9330;SDS011;4704;50.470;12.072;2023-08-06T01:48:02;3.85;;;3.50;;
9330;SDS011;4704;50.470;12.072;2023-08-06T01:50:30;3.50;;;3.20;;
9330;SDS011;4704;50.470;12.072;2023-08-06T01:52:59;3.50;;;3.30;;
9330;SDS011;4704;50.470;12.072;2023-08-06T01:55:26;3.17;;;2.95;;
9330;SDS011;4704;50.470;12.072;2023-08-06T01:57:56;3.42;;;3.20;;
9330;SDS011;4704;50.470;12.072;2023-08-06T02:00:23;3.35;;;3.15;;
9330;SDS011;4704;50.470;12.072;2023-08-06T02:02:53;3.25;;;3.00;;
9330;SDS011;4704;50.470;12.072;2023-08-06T02:05:20;3.42;;;2.97;;
9330;SDS011;4704;50.470;12.072;2023-08-06T02:07:48;3.38;;;2.90;;
9330;SDS011;4704;50.470;12.072;2023-08-06T02:10:17;4.05;;;3.08;;
9330;SDS011;4704;50.470;12.072;2023-08-06T02:12:45;3.30;;;2.97;;
9330;SDS011;4704;50.470;12.072;2023-08-06T02:15:12;3.10;;;2.90;;
9330;SDS011;4704;50.470;12.072;2023-08-06T02:17:40;4.30;;;3.17;;
9330;SDS011;4704;50.470;12.072;2023-08-06T02:20:08;3.25;;;2.90;;
9330;SDS011;4704;50.470;12.072;2023-08-06T02:22:36;3.47;;;3.17;;
9330;SDS011;4704;50.470;12.072;2023-08-06T02:25:03;4.45;;;3.00;;
9330;SDS011;4704;50.470;12.072;2023-08-06T02:27:32;3.20;;;3.00;;
9330;SDS011;4704;50.470;12.072;2023-08-06T02:30:00;3.13;;;2.83;;
9330;SDS011;4704;50.470;12.072;2023-08-06T02:32:29;3.20;;;3.00;;
9330;SDS011;4704;50.470;12.072;2023-08-06T02:34:57;3.00;;;2.80;;
9330;SDS011;4704;50.470;12.072;2023-08-06T02:37:25;2.97;;;2.78;;
9330;SDS011;4704;50.470;12.072;2023-08-06T02:39:53;2.97;;;2.78;;
9330;SDS011;4704;50.470;12.072;2023-08-06T02:42:20;2.78;;;2.58;;
9330;SDS011;4704;50.470;12.072;2023-08-06T02:44:50;2.70;;;2.60;;
9330;SDS011;4704;50.470;12.072;2023-08-06T02:47:17;2.97;;;2.53;;
9330;SDS011;4704;50.470;12.072;2023-08-06T02:49:45;4.38;;;2.60;;
9330;SDS011;4704;50.470;12.072;2023-08-06T02:52:12;2.58;;;2.38;;
9330;SDS011;4704;50.470;12.072;2023-08-06T02:54:40;3.15;;;2.50;;
9330;SDS011;4704;50.470;12.072;2023-08-06T02:57:07;2.92;;;2.38;;
9330;SDS011;4704;50.470;12.072;2023-08-06T02:59:35;2.40;;;2.20;;
9330;SDS011;4704;50.470;12.072;2023-08-06T03:02:05;2.70;;;2.50;;
9330;SDS011;4704;50.470;12.072;2023-08-06T03:04:32;2.53;;;2.35;;
9330;SDS011;4704;50.470;12.072;2023-08-06T03:07:00;2.25;;;2.10;;
9330;SDS011;4704;50.470;12.072;2023-08-06T03:09:28;2.60;;;2.40;;
9330;SDS011;4704;50.470;12.072;2023-08-06T03:11:55;2.60;;;2.17;;
9330;SDS011;4704;50.470;12.072;2023-08-06T03:14:23;2.45;;;2.25;;
9330;SDS011;4704;50.470;12.072;2023-08-06T03:16:50;2.38;;;2.10;;
9330;SDS011;4704;50.470;12.072;2023-08-06T03:19:19;1.95;;;1.85;;
9330;SDS011;4704;50.470;12.072;2023-08-06T03:21:47;1.98;;;1.88;;
9330;SDS011;4704;50.470;12.072;2023-08-06T03:24:15;2.08;;;1.92;;
9330;SDS011;4704;50.470;12.072;2023-08-06T03:26:42;2.55;;;1.80;;
9330;SDS011;4704;50.470;12.072;2023-08-06T03:29:10;1.90;;;1.70;;
9330;SDS011;4704;50.470;12.072;2023-08-06T03:31:37;3.15;;;1.90;;
9330;SDS011;4704;50.470;12.072;2023-08-06T03:34:05;1.77;;;1.65;;
9330;SDS011;4704;50.470;12.072;2023-08-06T03:36:34;1.77;;;1.67;;
9330;SDS011;4704;50.470;12.072;2023-08-06T03:39:02;1.98;;;1.88;;
9330;SDS011;4704;50.470;12.072;2023-08-06T03:41:30;1.55;;;1.45;;
9330;SDS011;4704;50.470;12.072;2023-08-06T03:43:57;2.55;;;1.50;;
9330;SDS011;4704;50.470;12.072;2023-08-06T03:46:26;1.65;;;1.55;;
9330;SDS011;4704;50.470;12.072;2023-08-06T03:48:53;1.67;;;1.58;;
9330;SDS011;4704;50.470;12.072;2023-08-06T03:51:22;1.60;;;1.50;;
9330;SDS011;4704;50.470;12.072;2023-08-06T03:53:51;1.83;;;1.45;;
9330;SDS011;4704;50.470;12.072;2023-08-06T03:56:18;3.13;;;1.45;;
9330;SDS011;4704;50.470;12.072;2023-08-06T03:58:46;1.92;;;1.50;;
9330;SDS011;4704;50.470;12.072;2023-08-06T04:01:15;2.40;;;1.40;;
9330;SDS011;4704;50.470;12.072;2023-08-06T04:03:42;2.08;;;1.30;;
9330;SDS011;4704;50.470;12.072;2023-08-06T04:06:09;1.50;;;1.40;;
9330;SDS011;4704;50.470;12.072;2023-08-06T04:08:37;1.85;;;1.38;;
9330;SDS011;4704;50.470;12.072;2023-08-06T04:11:06;1.60;;;1.30;;
9330;SDS011;4704;50.470;12.072;2023-08-06T04:13:33;2.15;;;1.23;;
9330;SDS011;4704;50.470;12.072;2023-08-06T04:16:01;2.03;;;1.30;;
9330;SDS011;4704;50.470;12.072;2023-08-06T04:18:28;1.42;;;1.30;;
9330;SDS011;4704;50.470;12.072;2023-08-06T04:20:56;2.03;;;1.30;;
9330;SDS011;4704;50.470;12.072;2023-08-06T04:23:23;1.60;;;1.20;;
9330;SDS011;4704;50.470;12.072;2023-08-06T04:25:50;1.48;;;1.25;;
9330;SDS011;4704;50.470;12.072;2023-08-06T04:28:19;1.50;;;1.40;;
9330;SDS011;4704;50.470;12.072;2023-08-06T04:30:47;1.48;;;1.38;;
9330;SDS011;4704;50.470;12.072;2023-08-06T04:33:14;1.45;;;1.35;;
9330;SDS011;4704;50.470;12.072;2023-08-06T04:35:41;2.75;;;1.30;;
9330;SDS011;4704;50.470;12.072;2023-08-06T04:38:09;1.75;;;1.30;;
9330;SDS011;4704;50.470;12.072;2023-08-06T04:40:36;1.40;;;1.30;;
9330;SDS011;4704;50.470;12.072;2023-08-06T04:43:04;1.20;;;1.10;;
9330;SDS011;4704;50.470;12.072;2023-08-06T04:45:33;2.65;;;1.40;;
9330;SDS011;4704;50.470;12.072;2023-08-06T04:48:00;1.20;;;1.10;;
9330;SDS011;4704;50.470;12.072;2023-08-06T04:50:27;1.00;;;1.00;;
9330;SDS011;4704;50.470;12.072;2023-08-06T04:52:55;1.75;;;1.40;;
9330;SDS011;4704;50.470;12.072;2023-08-06T04:55:22;1.27;;;1.17;;
9330;SDS011;4704;50.470;12.072;2023-08-06T04:57:49;2.53;;;1.40;;
9330;SDS011;4704;50.470;12.072;2023-08-06T05:00:17;1.25;;;1.10;;
9330;SDS011;4704;50.470;12.072;2023-08-06T05:02:46;1.30;;;1.20;;
9330;SDS011;4704;50.470;12.072;2023-08-06T05:05:13;1.20;;;1.20;;
9330;SDS011;4704;50.470;12.072;2023-08-06T05:07:40;1.67;;;1.55;;
9330;SDS011;4704;50.470;12.072;2023-08-06T05:10:08;2.28;;;1.35;;
9330;SDS011;4704;50.470;12.072;2023-08-06T05:12:36;1.17;;;1.17;;
9330;SDS011;4704;50.470;12.072;2023-08-06T05:15:03;2.33;;;1.30;;
9330;SDS011;4704;50.470;12.072;2023-08-06T05:17:31;1.83;;;1.40;;
9330;SDS011;4704;50.470;12.072;2023-08-06T05:20:00;1.70;;;1.27;;
9330;SDS011;4704;50.470;12.072;2023-08-06T05:22:28;1.77;;;1.40;;
9330;SDS011;4704;50.470;12.072;2023-08-06T05:24:55;1.38;;;1.30;;
9330;SDS011;4704;50.470;12.072;2023-08-06T05:27:23;1.50;;;1.40;;
9330;SDS011;4704;50.470;12.072;2023-08-06T05:29:54;1.75;;;1.48;;
9330;SDS011;4704;50.470;12.072;2023-08-06T05:32:22;1.65;;;1.55;;
9330;SDS011;4704;50.470;12.072;2023-08-06T05:34:49;1.60;;;1.50;;
9330;SDS011;4704;50.470;12.072;2023-08-06T05:37:18;1.60;;;1.50;;
9330;SDS011;4704;50.470;12.072;2023-08-06T05:39:46;1.63;;;1.52;;
9330;SDS011;4704;50.470;12.072;2023-08-06T05:42:13;1.88;;;1.40;;
9330;SDS011;4704;50.470;12.072;2023-08-06T05:44:40;1.65;;;1.55;;
9330;SDS011;4704;50.470;12.072;2023-08-06T05:47:08;2.35;;;1.70;;
9330;SDS011;4704;50.470;12.072;2023-08-06T05:49:35;2.63;;;1.50;;
9330;SDS011;4704;50.470;12.072;2023-08-06T05:52:03;2.67;;;1.63;;
9330;SDS011;4704;50.470;12.072;2023-08-06T05:54:34;1.90;;;1.80;;
9330;SDS011;4704;50.470;12.072;2023-08-06T05:57:02;2.35;;;1.52;;
9330;SDS011;4704;50.470;12.072;2023-08-06T05:59:29;1.70;;;1.60;;
9330;SDS011;4704;50.470;12.072;2023-08-06T06:01:57;2.08;;;1.88;;
9330;SDS011;4704;50.470;12.072;2023-08-06T06:04:25;1.65;;;1.55;;
9330;SDS011;4704;50.470;12.072;2023-08-06T06:06:52;1.80;;;1.70;;
9330;SDS011;4704;50.470;12.072;2023-08-06T06:09:19;1.73;;;1.63;;
9330;SDS011;4704;50.470;12.072;2023-08-06T06:11:48;2.20;;;1.50;;
9330;SDS011;4704;50.470;12.072;2023-08-06T06:14:16;1.85;;;1.73;;
9330;SDS011;4704;50.470;12.072;2023-08-06T06:16:43;1.83;;;1.73;;
9330;SDS011;4704;50.470;12.072;2023-08-06T06:19:11;2.03;;;1.92;;
9330;SDS011;4704;50.470;12.072;2023-08-06T06:21:39;1.83;;;1.73;;
9330;SDS011;4704;50.470;12.072;2023-08-06T06:24:06;2.72;;;1.95;;
9330;SDS011;4704;50.470;12.072;2023-08-06T06:26:33;2.03;;;1.80;;
9330;SDS011;4704;50.470;12.072;2023-08-06T06:29:02;1.80;;;1.70;;
9330;SDS011;4704;50.470;12.072;2023-08-06T06:31:30;2.20;;;2.00;;
9330;SDS011;4704;50.470;12.072;2023-08-06T06:33:57;2.20;;;2.10;;
9330;SDS011;4704;50.470;12.072;2023-08-06T06:36:25;1.90;;;1.80;;
9330;SDS011;4704;50.470;12.072;2023-08-06T06:38:52;2.10;;;1.90;;
9330;SDS011;4704;50.470;12.072;2023-08-06T06:41:19;2.28;;;2.13;;
9330;SDS011;4704;50.470;12.072;2023-08-06T06:43:47;2.15;;;1.95;;
9330;SDS011;4704;50.470;12.072;2023-08-06T06:46:16;2.03;;;1.92;;
9330;SDS011;4704;50.470;12.072;2023-08-06T06:48:43;2.00;;;1.90;;
9330;SDS011;4704;50.470;12.072;2023-08-06T06:51:10;2.03;;;1.80;;
9330;SDS011;4704;50.470;12.072;2023-08-06T06:53:38;1.92;;;1.83;;
9330;SDS011;4704;50.470;12.072;2023-08-06T06:56:06;2.38;;;1.88;;
9330;SDS011;4704;50.470;12.072;2023-08-06T06:58:33;2.28;;;1.98;;
9330;SDS011;4704;50.470;12.072;2023-08-06T07:01:00;2.30;;;1.92;;
9330;SDS011;4704;50.470;12.072;2023-08-06T07:03:29;1.98;;;1.88;;
9330;SDS011;4704;50.470;12.072;2023-08-06T07:05:57;2.28;;;2.05;;
9330;SDS011;4704;50.470;12.072;2023-08-06T07:08:24;2.35;;;1.83;;
9330;SDS011;4704;50.470;12.072;2023-08-06T07:10:59;2.10;;;2.00;;
9330;SDS011;4704;50.470;12.072;2023-08-06T07:13:27;2.20;;;2.10;;
9330;SDS011;4704;50.470;12.072;2023-08-06T07:15:55;2.17;;;2.08;;
9330;SDS011;4704;50.470;12.072;2023-08-06T07:18:22;2.35;;;1.90;;
9330;SDS011;4704;50.470;12.072;2023-08-06T07:20:51;2.30;;;2.10;;
9330;SDS011;4704;50.470;12.072;2023-08-06T07:23:20;1.90;;;1.80;;
9330;SDS011;4704;50.470;12.072;2023-08-06T07:25:47;1.95;;;1.70;;
9330;SDS011;4704;50.470;12.072;2023-08-06T07:28:15;1.90;;;1.80;;
9330;SDS011;4704;50.470;12.072;2023-08-06T07:30:43;2.10;;;1.90;;
9330;SDS011;4704;50.470;12.072;2023-08-06T07:33:11;2.00;;;1.90;;
9330;SDS011;4704;50.470;12.072;2023-08-06T07:35:38;2.00;;;1.80;;
9330;SDS011;4704;50.470;12.072;2023-08-06T07:38:07;2.05;;;1.90;;
9330;SDS011;4704;50.470;12.072;2023-08-06T07:40:35;1.92;;;1.80;;
9330;SDS011;4704;50.470;12.072;2023-08-06T07:43:02;1.80;;;1.70;;
9330;SDS011;4704;50.470;12.072;2023-08-06T07:45:32;1.73;;;1.63;;
9330;SDS011;4704;50.470;12.072;2023-08-06T07:48:00;2.03;;;1.70;;
9330;SDS011;4704;50.470;12.072;2023-08-06T07:50:27;1.75;;;1.65;;
9330;SDS011;4704;50.470;12.072;2023-08-06T07:52:54;1.85;;;1.60;;
9330;SDS011;4704;50.470;12.072;2023-08-06T07:55:23;2.03;;;1.67;;
9330;SDS011;4704;50.470;12.072;2023-08-06T07:57:51;1.80;;;1.70;;
9330;SDS011;4704;50.470;12.072;2023-08-06T08:00:18;2.03;;;1.83;;
9330;SDS011;4704;50.470;12.072;2023-08-06T08:02:45;1.75;;;1.65;;
9330;SDS011;4704;50.470;12.072;2023-08-06T08:05:13;2.00;;;1.90;;
9330;SDS011;4704;50.470;12.072;2023-08-06T08:07:41;1.98;;;1.85;;
9330;SDS011;4704;50.470;12.072;2023-08-06T08:10:09;2.05;;;1.70;;
9330;SDS011;4704;50.470;12.072;2023-08-06T08:12:38;2.22;;;2.00;;
9330;SDS011;4704;50.470;12.072;2023-08-06T08:15:06;2.30;;;1.90;;
9330;SDS011;4704;50.470;12.072;2023-08-06T08:17:33;2.05;;;1.95;;
9330;SDS011;4704;50.470;12.072;2023-08-06T08:20:01;2.05;;;1.95;;
9330;SDS011;4704;50.470;12.072;2023-08-06T08:22:28;1.92;;;1.83;;
9330;SDS011;4704;50.470;12.072;2023-08-06T08:24:56;1.90;;;1.80;;
9330;SDS011;4704;50.470;12.072;2023-08-06T08:27:23;2.08;;;1.98;;
9330;SDS011;4704;50.470;12.072;2023-08-06T08:29:52;2.25;;;2.05;;
9330;SDS011;4704;50.470;12.072;2023-08-06T08:32:20;2.22;;;2.10;;
9330;SDS011;4704;50.470;12.072;2023-08-06T08:34:47;2.30;;;2.10;;
9330;SDS011;4704;50.470;12.072;2023-08-06T08:37:15;2.80;;;2.22;;
9330;SDS011;4704;50.470;12.072;2023-08-06T08:39:42;2.40;;;2.20;;
9330;SDS011;4704;50.470;12.072;2023-08-06T08:42:10;2.53;;;2.33;;
9330;SDS011;4704;50.470;12.072;2023-08-06T08:44:37;2.47;;;2.28;;
9330;SDS011;4704;50.470;12.072;2023-08-06T08:47:07;2.50;;;2.30;;
9330;SDS011;4704;50.470;12.072;2023-08-06T08:49:35;2.00;;;1.90;;
9330;SDS011;4704;50.470;12.072;2023-08-06T08:52:03;2.10;;;2.00;;
9330;SDS011;4704;50.470;12.072;2023-08-06T08:54:31;2.53;;;2.17;;
9330;SDS011;4704;50.470;12.072;2023-08-06T08:56:59;2.63;;;2.22;;
9330;SDS011;4704;50.470;12.072;2023-08-06T08:59:27;2.60;;;2.40;;
9330;SDS011;4704;50.470;12.072;2023-08-06T09:01:55;2.13;;;2.03;;
9330;SDS011;4704;50.470;12.072;2023-08-06T09:04:24;2.80;;;2.17;;
9330;SDS011;4704;50.470;12.072;2023-08-06T09:06:52;2.65;;;2.38;;
9330;SDS011;4704;50.470;12.072;2023-08-06T09:09:22;2.40;;;2.20;;
9330;SDS011;4704;50.470;12.072;2023-08-06T09:11:52;2.20;;;2.00;;
9330;SDS011;4704;50.470;12.072;2023-08-06T09:14:21;2.30;;;2.10;;
9330;SDS011;4704;50.470;12.072;2023-08-06T09:16:49;2.47;;;2.10;;
9330;SDS011;4704;50.470;12.072;2023-08-06T09:19:16;2.95;;;2.60;;
9330;SDS011;4704;50.470;12.072;2023-08-06T09:21:45;2.40;;;2.20;;
9330;SDS011;4704;50.470;12.072;2023-08-06T09:24:14;2.50;;;2.30;;
9330;SDS011;4704;50.470;12.072;2023-08-06T09:26:43;2.63;;;2.10;;
9330;SDS011;4704;50.470;12.072;2023-08-06T09:29:10;2.17;;;1.95;;
9330;SDS011;4704;50.470;12.072;2023-08-06T09:31:41;2.10;;;2.00;;
9330;SDS011;4704;50.470;12.072;2023-08-06T09:34:14;2.28;;;2.08;;
9330;SDS011;4704;50.470;12.072;2023-08-06T09:36:42;2.78;;;2.10;;
9330;SDS011;4704;50.470;12.072;2023-08-06T09:39:15;2.25;;;2.10;;
9330;SDS011;4704;50.470;12.072;2023-08-06T09:41:42;2.08;;;1.90;;
9330;SDS011;4704;50.470;12.072;2023-08-06T09:44:15;3.75;;;1.92;;
9330;SDS011;4704;50.470;12.072;2023-08-06T09:46:46;2.00;;;1.80;;
9330;SDS011;4704;50.470;12.072;2023-08-06T09:49:14;2.13;;;1.92;;
9330;SDS011;4704;50.470;12.072;2023-08-06T09:51:41;2.22;;;2.03;;
9330;SDS011;4704;50.470;12.072;2023-08-06T09:54:09;2.13;;;1.92;;
9330;SDS011;4704;50.470;12.072;2023-08-06T09:56:40;2.53;;;2.03;;
9330;SDS011;4704;50.470;12.072;2023-08-06T09:59:07;2.05;;;1.95;;
9330;SDS011;4704;50.470;12.072;2023-08-06T10:01:36;2.13;;;2.03;;
9330;SDS011;4704;50.470;12.072;2023-08-06T10:04:04;2.45;;;2.25;;
9330;SDS011;4704;50.470;12.072;2023-08-06T10:06:33;2.08;;;1.88;;
9330;SDS011;4704;50.470;12.072;2023-08-06T10:09:01;2.15;;;1.95;;
9330;SDS011;4704;50.470;12.072;2023-08-06T10:11:29;1.98;;;1.80;;
9330;SDS011;4704;50.470;12.072;2023-08-06T10:14:00;1.77;;;1.60;;
9330;SDS011;4704;50.470;12.072;2023-08-06T10:16:30;2.15;;;1.90;;
9330;SDS011;4704;50.470;12.072;2023-08-06T10:18:58;2.05;;;1.85;;
9330;SDS011;4704;50.470;12.072;2023-08-06T10:21:26;2.78;;;1.85;;
9330;SDS011;4704;50.470;12.072;2023-08-06T10:23:55;2.00;;;1.60;;
9330;SDS011;4704;50.470;12.072;2023-08-06T10:26:25;2.20;;;1.60;;
9330;SDS011;4704;50.470;12.072;2023-08-06T10:28:53;1.85;;;1.70;;
9330;SDS011;4704;50.470;12.072;2023-08-06T10:31:26;1.90;;;1.80;;
9330;SDS011;4704;50.470;12.072;2023-08-06T10:34:13;1.98;;;1.70;;
9330;SDS011;4704;50.470;12.072;2023-08-06T10:36:44;2.03;;;1.92;;
9330;SDS011;4704;50.470;12.072;2023-08-06T10:39:13;2.20;;;1.92;;
9330;SDS011;4704;50.470;12.072;2023-08-06T10:41:41;2.70;;;2.03;;
9330;SDS011;4704;50.470;12.072;2023-08-06T10:44:10;2.20;;;1.67;;
9330;SDS011;4704;50.470;12.072;2023-08-06T10:46:39;2.20;;;1.67;;
9330;SDS011;4704;50.470;12.072;2023-08-06T10:49:06;2.83;;;1.88;;
9330;SDS011;4704;50.470;12.072;2023-08-06T10:51:34;2.25;;;1.58;;
9330;SDS011;4704;50.470;12.072;2023-08-06T10:54:02;2.00;;;1.80;;
9330;SDS011;4704;50.470;12.072;2023-08-06T10:56:29;1.60;;;1.50;;
9330;SDS011;4704;50.470;12.072;2023-08-06T10:58:57;2.05;;;1.55;;
9330;SDS011;4704;50.470;12.072;2023-08-06T11:01:24;2.08;;;1.75;;
9330;SDS011;4704;50.470;12.072;2023-08-06T11:04:00;1.70;;;1.60;;
9330;SDS011;4704;50.470;12.072;2023-08-06T11:06:30;2.10;;;1.67;;
9330;SDS011;4704;50.470;12.072;2023-08-06T11:08:58;2.47;;;1.50;;
9330;SDS011;4704;50.470;12.072;2023-08-06T11:11:26;1.60;;;1.38;;
9330;SDS011;4704;50.470;12.072;2023-08-06T11:13:54;1.95;;;1.23;;
9330;SDS011;4704;50.470;12.072;2023-08-06T11:16:22;1.25;;;1.10;;
9330;SDS011;4704;50.470;12.072;2023-08-06T11:18:50;1.45;;;1.35;;
9330;SDS011;4704;50.470;12.072;2023-08-06T11:21:20;1.25;;;1.15;;
9330;SDS011;4704;50.470;12.072;2023-08-06T11:23:49;1.30;;;1.20;;
9330;SDS011;4704;50.470;12.072;2023-08-06T11:26:18;1.30;;;1.20;;
9330;SDS011;4704;50.470;12.072;2023-08-06T11:28:46;1.38;;;1.27;;
9330;SDS011;4704;50.470;12.072;2023-08-06T11:31:18;2.28;;;1.60;;
9330;SDS011;4704;50.470;12.072;2023-08-06T11:33:46;1.40;;;1.30;;
9330;SDS011;4704;50.470;12.072;2023-08-06T11:36:13;1.30;;;1.20;;
9330;SDS011;4704;50.470;12.072;2023-08-06T11:38:42;2.47;;;1.52;;
9330;SDS011;4704;50.470;12.072;2023-08-06T11:41:09;1.40;;;1.30;;
9330;SDS011;4704;50.470;12.072;2023-08-06T11:43:37;1.67;;;1.45;;
9330;SDS011;4704;50.470;12.072;2023-08-06T11:46:04;1.38;;;1.27;;
9330;SDS011;4704;50.470;12.072;2023-08-06T11:48:32;1.35;;;1.13;;
9330;SDS011;4704;50.470;12.072;2023-08-06T11:50:59;2.55;;;1.45;;
9330;SDS011;4704;50.470;12.072;2023-08-06T11:53:27;1.45;;;1.35;;
9330;SDS011;4704;50.470;12.072;2023-08-06T11:55:56;1.52;;;1.42;;
9330;SDS011;4704;50.470;12.072;2023-08-06T11:58:25;1.27;;;1.17;;
9330;SDS011;4704;50.470;12.072;2023-08-06T12:00:53;1.30;;;1.20;;
9330;SDS011;4704;50.470;12.072;2023-08-06T12:03:21;1.55;;;1.17;;
9330;SDS011;4704;50.470;12.072;2023-08-06T12:05:53;1.33;;;1.23;;
9330;SDS011;4704;50.470;12.072;2023-08-06T12:08:21;1.10;;;1.00;;
9330;SDS011;4704;50.470;12.072;2023-08-06T12:10:53;1.13;;;1.05;;
9330;SDS011;4704;50.470;12.072;2023-08-06T12:13:22;1.10;;;1.00;;
9330;SDS011;4704;50.470;12.072;2023-08-06T12:15:50;1.20;;;1.10;;
9330;SDS011;4704;50.470;12.072;2023-08-06T12:18:18;0.80;;;0.80;;
9330;SDS011;4704;50.470;12.072;2023-08-06T12:20:46;1.13;;;0.90;;
9330;SDS011;4704;50.470;12.072;2023-08-06T12:23:13;1.13;;;1.02;;
9330;SDS011;4704;50.470;12.072;2023-08-06T12:25:41;1.10;;;1.00;;
9330;SDS011;4704;50.470;12.072;2023-08-06T12:28:09;0.80;;;0.80;;
9330;SDS011;4704;50.470;12.072;2023-08-06T12:30:39;0.80;;;0.80;;
9330;SDS011;4704;50.470;12.072;2023-08-06T12:33:09;0.80;;;0.70;;
9330;SDS011;4704;50.470;12.072;2023-08-06T12:35:37;0.70;;;0.70;;
9330;SDS011;4704;50.470;12.072;2023-08-06T12:38:04;1.13;;;0.60;;
9330;SDS011;4704;50.470;12.072;2023-08-06T12:40:32;0.77;;;0.73;;
9330;SDS011;4704;50.470;12.072;2023-08-06T12:42:59;1.02;;;0.70;;
9330;SDS011;4704;50.470;12.072;2023-08-06T12:45:26;0.63;;;0.63;;
9330;SDS011;4704;50.470;12.072;2023-08-06T12:47:55;0.75;;;0.55;;
9330;SDS011;4704;50.470;12.072;2023-08-06T12:50:23;0.60;;;0.60;;
9330;SDS011;4704;50.470;12.072;2023-08-06T12:52:50;0.50;;;0.50;;
9330;SDS011;4704;50.470;12.072;2023-08-06T12:55:18;0.50;;;0.50;;
9330;SDS011;4704;50.470;12.072;2023-08-06T12:57:45;0.60;;;0.60;;
9330;SDS011;4704;50.470;12.072;2023-08-06T13:00:13;1.05;;;0.63;;
9330;SDS011;4704;50.470;12.072;2023-08-06T13:02:40;0.80;;;0.80;;
9330;SDS011;4704;50.470;12.072;2023-08-06T13:05:09;0.85;;;0.70;;
9330;SDS011;4704;50.470;12.072;2023-08-06T13:07:37;0.60;;;0.60;;
9330;SDS011;4704;50.470;12.072;2023-08-06T13:10:05;0.60;;;0.60;;
9330;SDS011;4704;50.470;12.072;2023-08-06T13:12:32;0.60;;;0.60;;
9330;SDS011;4704;50.470;12.072;2023-08-06T13:15:00;0.60;;;0.60;;
9330;SDS011;4704;50.470;12.072;2023-08-06T13:17:27;0.60;;;0.60;;
9330;SDS011;4704;50.470;12.072;2023-08-06T13:19:54;0.65;;;0.60;;
9330;SDS011;4704;50.470;12.072;2023-08-06T13:22:24;1.25;;;0.60;;
9330;SDS011;4704;50.470;12.072;2023-08-06T13:24:51;0.77;;;0.60;;
9330;SDS011;4704;50.470;12.072;2023-08-06T13:27:18;0.57;;;0.32;;
9330;SDS011;4704;50.470;12.072;2023-08-06T13:29:46;1.38;;;0.30;;
9330;SDS011;4704;50.470;12.072;2023-08-06T13:32:13;0.30;;;0.30;;
9330;SDS011;4704;50.470;12.072;2023-08-06T13:34:41;0.57;;;0.40;;
9330;SDS011;4704;50.470;12.072;2023-08-06T13:37:08;0.30;;;0.30;;
9330;SDS011;4704;50.470;12.072;2023-08-06T13:39:37;0.80;;;0.30;;
9330;SDS011;4704;50.470;12.072;2023-08-06T13:42:05;0.70;;;0.30;;
9330;SDS011;4704;50.470;12.072;2023-08-06T13:44:32;0.30;;;0.30;;
9330;SDS011;4704;50.470;12.072;2023-08-06T13:47:01;0.30;;;0.30;;
9330;SDS011;4704;50.470;12.072;2023-08-06T13:49:28;0.43;;;0.30;;
9330;SDS011;4704;50.470;12.072;2023-08-06T13:51:56;0.40;;;0.40;;
9330;SDS011;4704;50.470;12.072;2023-08-06T13:54:23;0.30;;;0.30;;
9330;SDS011;4704;50.470;12.072;2023-08-06T13:56:52;0.40;;;0.40;;
9330;SDS011;4704;50.470;12.072;2023-08-06T13:59:20;0.52;;;0.50;;
9330;SDS011;4704;50.470;12.072;2023-08-06T14:01:49;1.65;;;0.50;;
9330;SDS011;4704;50.470;12.072;2023-08-06T14:04:18;1.05;;;0.40;;
9330;SDS011;4704;50.470;12.072;2023-08-06T14:06:46;0.70;;;0.45;;
9330;SDS011;4704;50.470;12.072;2023-08-06T14:09:13;0.40;;;0.40;;
9330;SDS011;4704;50.470;12.072;2023-08-06T14:11:43;0.52;;;0.50;;
9330;SDS011;4704;50.470;12.072;2023-08-06T14:14:12;0.73;;;0.50;;
9330;SDS011;4704;50.470;12.072;2023-08-06T14:16:40;0.50;;;0.50;;
9330;SDS011;4704;50.470;12.072;2023-08-06T14:19:07;0.45;;;0.45;;
9330;SDS011;4704;50.470;12.072;2023-08-06T14:21:34;0.30;;;0.30;;
9330;SDS011;4704;50.470;12.072;2023-08-06T14:24:02;0.32;;;0.32;;
9330;SDS011;4704;50.470;12.072;2023-08-06T14:26:29;0.43;;;0.43;;
9330;SDS011;4704;50.470;12.072;2023-08-06T14:28:57;0.30;;;0.30;;
9330;SDS011;4704;50.470;12.072;2023-08-06T14:31:26;0.50;;;0.30;;
9330;SDS011;4704;50.470;12.072;2023-08-06T14:33:53;0.73;;;0.20;;
9330;SDS011;4704;50.470;12.072;2023-08-06T14:36:20;0.25;;;0.25;;
9330;SDS011;4704;50.470;12.072;2023-08-06T14:38:48;0.20;;;0.20;;
9330;SDS011;4704;50.470;12.072;2023-08-06T14:41:15;0.20;;;0.20;;
9330;SDS011;4704;50.470;12.072;2023-08-06T14:43:43;0.22;;;0.22;;
9330;SDS011;4704;50.470;12.072;2023-08-06T14:46:10;0.30;;;0.30;;
9330;SDS011;4704;50.470;12.072;2023-08-06T14:48:39;0.20;;;0.20;;
9330;SDS011;4704;50.470;12.072;2023-08-06T14:51:07;0.40;;;0.40;;
9330;SDS011;4704;50.470;12.072;2023-08-06T14:53:34;0.40;;;0.25;;
9330;SDS011;4704;50.470;12.072;2023-08-06T14:56:02;0.20;;;0.20;;
9330;SDS011;4704;50.470;12.072;2023-08-06T14:58:30;0.30;;;0.28;;
9330;SDS011;4704;50.470;12.072;2023-08-06T15:00:57;0.28;;;0.28;;
9330;SDS011;4704;50.470;12.072;2023-08-06T15:03:25;0.25;;;0.25;;
9330;SDS011;4704;50.470;12.072;2023-08-06T15:05:56;0.30;;;0.30;;